Roches Point, Ireland

12:49 AM IST on March 29, 2017 (GMT +0100)
Ringaskiddy | | Change Station

Elev 75 ft 51.83 °N, 8.32 °W | Updated 10 minutes ago

Rain
Rain
52.2 °F
Feels Like 52.2 °F
N
8.3
Wind Variable Wind from SSW
Gusts 10.7 mph

Today
High -- | Low -- °F
--% Chance of Precip.
Yesterday
High -- | Low -- °F
Precip. -- in
Pressure 29.89 in
Visibility 0.5 miles
Clouds Scattered Clouds 100 ft
Mostly Cloudy 200 ft
Mostly Cloudy 600 ft
Dew Point 51 °F
Humidity 96%
Rainfall 0.00 in
Snow Depth Not available.
7:14 AM 8:01 PM
New Moon, 1% visible
METAR EICK 282330Z 20011KT 0800 R17/1000N R35/0800N -DZ FG SCT001 BKN002 BKN006 10/10 Q1012 TEMPO BKN001
Pressure 29.89 in
Visibility 0.5 miles
Clouds Scattered Clouds 100 ft
Mostly Cloudy 200 ft
Mostly Cloudy 600 ft
Dew Point 51 °F
Humidity 96%
Rainfall 0.00 in
Snow Depth Not available.
7:14 AM 8:01 PM
New Moon, 1% visible
METAR EICK 282330Z 20011KT 0800 R17/1000N R35/0800N -DZ FG SCT001 BKN002 BKN006 10/10 Q1012 TEMPO BKN001

Get Severe Weather Alerts

Thanks for signing up!

Be on the lookout for a verification email in your inbox.

You'll start receiving the daily forecast at 8 AM.

×

10-Day Weather Forecast

×

Almanac

Astronomy

Mar. 29, 2017 Rise Set
Actual Time
Civil Twilight
Nautical Twilight
Astronomical Twilight
Moon
Length of Visible Light
Length of Day
Tomorrow will be .
, % of the Moon is Illuminated

Today's Extremes

Country Highs Country Lows

Community

WunderPhotos

Upload Photos

1,962,540 photos uploaded!

WunderBlog® & News

Nearby

Air Quality

  Air Quality AQ Index Pollutant
Not available.

Snow Depth

Station Depth Elevation

Earthquake Activity

City Distance Mag. Time & Date
Minimum magnitude displayed is 2.5.

Earthquake Activity

City Distance Mag. Time & Date
Minimum magnitude displayed is 2.5.

Coastal Water Temperatures

Place Temperature

Stations

Nearby Weather Stations

Station Location Temp. Windchill Dew Point Humidity Wind Precip. Elev Updated Type